createdAt,value
2019-01-29T00:00:54.108Z,60.14
2019-01-29T00:05:58.174Z,59.94
2019-01-29T00:11:02.498Z,60.35
2019-01-29T00:16:06.820Z,60.19
2019-01-29T00:21:11.008Z,60.93
2019-01-29T00:26:15.167Z,59.85
2019-01-29T00:31:19.472Z,60.44
2019-01-29T00:36:23.779Z,60.52
2019-01-29T00:41:28.054Z,61.06
2019-01-29T00:46:32.242Z,61.05
2019-01-29T00:51:36.413Z,60.97
2019-01-29T00:56:40.670Z,60.80
2019-01-29T01:01:44.840Z,61.13
2019-01-29T01:06:49.142Z,61.13
2019-01-29T01:11:53.529Z,61.55
2019-01-29T01:16:57.719Z,61.54
2019-01-29T01:22:02.006Z,61.66
2019-01-29T01:27:06.324Z,61.87
2019-01-29T01:32:10.497Z,62.08
2019-01-29T01:37:14.795Z,61.92
2019-01-29T01:42:19.030Z,61.94
2019-01-29T01:47:23.258Z,62.41
2019-01-29T01:52:27.615Z,62.36
2019-01-29T01:57:31.931Z,62.12
2019-01-29T02:02:36.273Z,61.94
2019-01-29T02:07:40.532Z,61.94
2019-01-29T02:12:44.829Z,62.09
2019-01-29T02:17:49.084Z,61.81
2019-01-29T02:22:53.228Z,61.98
2019-01-29T02:27:57.347Z,62.46
2019-01-29T02:33:01.383Z,62.75
2019-01-29T02:38:05.527Z,62.56
2019-01-29T02:43:09.681Z,62.60
2019-01-29T02:48:13.900Z,63.00
2019-01-29T02:53:18.651Z,63.00
2019-01-29T02:58:22.879Z,64.00
2019-01-29T03:03:26.999Z,64.00
2019-01-29T03:08:31.265Z,63.87
2019-01-29T03:13:35.496Z,63.81
2019-01-29T03:18:39.720Z,64.11
2019-01-29T03:23:43.856Z,63.81
2019-01-29T03:28:47.987Z,64.30
2019-01-29T03:33:52.217Z,63.84
2019-01-29T03:38:56.282Z,63.84
2019-01-29T03:44:00.552Z,64.10
2019-01-29T03:49:05.072Z,64.33
2019-01-29T03:54:09.378Z,64.44
2019-01-29T03:59:13.516Z,64.44
2019-01-29T04:04:17.550Z,64.56
2019-01-29T04:09:21.669Z,63.88
2019-01-29T04:14:25.908Z,64.44
2019-01-29T04:19:30.211Z,64.69
2019-01-29T04:24:34.358Z,64.47
2019-01-29T04:29:38.538Z,64.52
2019-01-29T04:34:42.641Z,64.48
2019-01-29T04:39:46.952Z,64.46
2019-01-29T04:44:51.004Z,64.46
2019-01-29T04:49:55.098Z,64.71
2019-01-29T04:54:59.355Z,64.51
2019-01-29T05:00:03.655Z,64.20
2019-01-29T05:05:09.583Z,64.20
2019-01-29T05:10:14.094Z,64.36
2019-01-29T05:15:18.404Z,64.47
2019-01-29T05:20:23.292Z,64.23
2019-01-29T05:25:27.393Z,63.54
2019-01-29T05:30:31.468Z,64.03
2019-01-29T05:35:35.527Z,63.85
2019-01-29T05:40:39.543Z,63.85
2019-01-29T05:45:43.629Z,63.17
2019-01-29T05:50:47.782Z,63.59
2019-01-29T05:55:51.875Z,63.25
2019-01-29T06:00:55.920Z,63.15
2019-01-29T06:06:00.026Z,63.10
2019-01-29T06:11:04.158Z,63.14
2019-01-29T06:16:08.319Z,62.76
2019-01-29T06:21:12.329Z,62.77
2019-01-29T06:26:16.357Z,62.52
2019-01-29T06:31:20.481Z,62.48
2019-01-29T06:36:24.576Z,62.38
2019-01-29T06:41:28.661Z,62.38
2019-01-29T06:46:32.672Z,62.92
2019-01-29T06:51:36.700Z,62.63
2019-01-29T06:56:40.841Z,63.14
2019-01-29T07:01:44.859Z,63.15
2019-01-29T07:06:49.957Z,63.06
2019-01-29T07:12:02.021Z,48.67
2019-01-29T07:17:43.635Z,51.77
2019-01-29T07:22:47.660Z,50.31
2019-01-29T07:27:51.684Z,50.45
2019-01-29T07:32:55.811Z,50.85
2019-01-29T07:37:59.920Z,51.49
2019-01-29T07:43:04.102Z,51.49
2019-01-29T07:48:08.275Z,52.45
2019-01-29T07:53:12.727Z,53.16
2019-01-29T07:58:16.798Z,53.72
2019-01-29T08:03:20.825Z,54.47
2019-01-29T08:08:24.911Z,54.78
2019-01-29T08:13:28.987Z,55.13
2019-01-29T08:18:33.149Z,55.13
2019-01-29T08:23:37.184Z,55.75
2019-01-29T08:28:41.214Z,56.38
2019-01-29T08:33:45.219Z,56.38
2019-01-29T08:38:49.251Z,57.00
2019-01-29T08:43:53.323Z,57.00
2019-01-29T08:48:57.334Z,57.50
2019-01-29T08:54:01.408Z,57.50
2019-01-29T08:59:05.683Z,57.97
2019-01-29T09:04:09.789Z,57.97
2019-01-29T09:09:13.893Z,58.29
2019-01-29T09:14:17.990Z,58.52
2019-01-29T09:19:22.009Z,58.52
2019-01-29T09:24:26.042Z,58.65
2019-01-29T09:29:30.082Z,58.69
2019-01-29T09:34:34.109Z,58.79
2019-01-29T09:39:38.204Z,58.59
2019-01-29T09:44:42.262Z,58.81
2019-01-29T09:49:46.286Z,58.81
2019-01-29T09:54:50.323Z,59.00
2019-01-29T09:59:54.376Z,59.50
2019-01-29T10:04:58.475Z,59.22
2019-01-29T10:10:02.749Z,59.01
2019-01-29T10:15:09.201Z,58.71
2019-01-29T10:20:13.422Z,59.24
2019-01-29T10:25:17.745Z,59.24
2019-01-29T10:30:22.231Z,59.07
2019-01-29T10:35:27.015Z,59.07
2019-01-29T10:40:31.299Z,59.48
2019-01-29T10:45:35.583Z,59.30
2019-01-29T10:50:39.775Z,59.61
2019-01-29T10:55:47.479Z,59.61
2019-01-29T11:00:49.720Z,59.58
2019-01-29T11:05:53.759Z,60.25
2019-01-29T11:10:57.804Z,60.07
2019-01-29T11:16:01.845Z,60.24
2019-01-29T11:21:06.345Z,59.95
2019-01-29T11:26:10.545Z,60.17
2019-01-29T11:31:14.746Z,60.33
2019-01-29T11:36:18.853Z,59.92
2019-01-29T11:41:22.890Z,59.92
2019-01-29T11:46:27.004Z,59.46
2019-01-29T11:51:31.087Z,59.46
2019-01-29T11:56:35.130Z,60.53
2019-01-29T12:01:39.222Z,60.53
2019-01-29T12:06:43.239Z,60.04
2019-01-29T12:11:47.425Z,60.14
2019-01-29T12:16:51.518Z,60.52
2019-01-29T12:21:55.689Z,60.79
2019-01-29T12:26:59.952Z,61.06
2019-01-29T12:32:04.218Z,61.06
2019-01-29T12:37:08.381Z,60.62
2019-01-29T12:42:12.484Z,60.56
2019-01-29T12:47:16.821Z,60.99
2019-01-29T12:52:29.878Z,60.75
2019-01-29T12:57:34.042Z,60.75
2019-01-29T13:02:38.081Z,60.90
2019-01-29T13:07:42.199Z,60.68
2019-01-29T13:12:46.356Z,60.30
2019-01-29T13:17:50.545Z,61.02
2019-01-29T13:22:54.669Z,60.91
2019-01-29T13:27:58.683Z,60.83
2019-01-29T13:33:03.295Z,60.95
2019-01-29T13:38:08.349Z,61.22
2019-01-29T13:43:12.573Z,61.23
2019-01-29T13:48:16.884Z,61.42
2019-01-29T13:53:20.932Z,61.42
2019-01-29T13:58:25.121Z,61.22
2019-01-29T14:03:29.302Z,61.33
2019-01-29T14:08:33.408Z,61.50
2019-01-29T14:13:37.658Z,61.50
2019-01-29T14:18:42.931Z,61.44
2019-01-29T14:23:47.001Z,58.87
2019-01-29T14:28:51.136Z,57.64
2019-01-29T14:33:55.142Z,57.76
2019-01-29T14:39:32.124Z,57.94
2019-01-29T14:44:43.155Z,57.94
2019-01-29T14:49:47.257Z,58.42
2019-01-29T14:54:51.390Z,58.42
2019-01-29T14:59:55.405Z,58.64
2019-01-29T15:04:59.584Z,59.10
2019-01-29T15:10:03.832Z,59.13
2019-01-29T15:15:10.244Z,59.04
2019-01-29T15:20:14.526Z,59.04
2019-01-29T15:25:18.623Z,58.15
2019-01-29T15:30:25.387Z,57.92
2019-01-29T15:35:29.574Z,57.88
2019-01-29T15:40:33.660Z,58.43
2019-01-29T15:45:37.930Z,58.86
2019-01-29T15:50:42.236Z,59.65
2019-01-29T15:55:46.302Z,59.65
2019-01-29T16:00:50.415Z,59.58
2019-01-29T16:05:55.658Z,58.65
2019-01-29T16:10:59.681Z,58.36
2019-01-29T16:16:06.108Z,57.71
2019-01-29T16:21:10.704Z,58.56
2019-01-29T16:26:15.108Z,58.56
2019-01-29T16:31:19.299Z,59.08
2019-01-29T16:36:23.631Z,59.49
2019-01-29T16:41:27.869Z,60.09
2019-01-29T16:46:32.184Z,59.73
2019-01-29T16:51:42.192Z,60.53
2019-01-29T16:56:42.325Z,59.96
2019-01-29T17:01:46.350Z,59.96
2019-01-29T17:06:50.369Z,59.42
2019-01-29T17:11:54.408Z,59.17
2019-01-29T17:16:58.728Z,58.44
2019-01-29T17:22:05.407Z,58.30
2019-01-29T17:27:09.481Z,57.99
2019-01-29T17:32:13.584Z,57.99
2019-01-29T17:37:17.664Z,57.86
2019-01-29T17:42:21.692Z,57.05
2019-01-29T17:47:25.754Z,57.05
2019-01-29T17:52:29.916Z,57.05
2019-01-29T17:57:33.972Z,57.05
2019-01-29T18:02:38.061Z,57.13
2019-01-29T18:07:42.189Z,57.43
2019-01-29T18:12:46.485Z,58.48
2019-01-29T18:17:50.663Z,58.78
2019-01-29T18:22:55.122Z,59.39
2019-01-29T18:28:01.238Z,59.39
2019-01-29T18:33:05.725Z,60.14
2019-01-29T18:38:09.837Z,60.45
2019-01-29T18:43:13.996Z,60.66
2019-01-29T18:48:18.063Z,60.66
2019-01-29T18:53:22.099Z,61.44
2019-01-29T18:58:26.178Z,61.72
2019-01-29T19:03:30.237Z,61.72
2019-01-29T19:08:34.268Z,61.94
2019-01-29T19:13:38.277Z,62.33
2019-01-29T19:18:42.360Z,62.25
2019-01-29T19:23:46.391Z,62.41
2019-01-29T19:28:50.445Z,62.72
2019-01-29T19:33:54.482Z,62.72
2019-01-29T19:38:58.594Z,62.98
2019-01-29T19:44:02.687Z,63.02
2019-01-29T19:49:06.841Z,62.79
2019-01-29T19:54:10.924Z,63.06
2019-01-29T19:59:14.975Z,63.06
2019-01-29T20:04:19.153Z,63.40
2019-01-29T20:09:23.326Z,63.40
2019-01-29T20:14:27.437Z,63.58
2019-01-29T20:19:31.463Z,63.54
2019-01-29T20:24:35.505Z,63.51
2019-01-29T20:29:39.638Z,63.52
2019-01-29T20:34:43.777Z,63.59
2019-01-29T20:39:47.819Z,63.93
2019-01-29T20:44:51.992Z,63.92
2019-01-29T20:49:56.125Z,63.92
2019-01-29T20:55:00.303Z,63.62
2019-01-29T21:00:07.102Z,63.58
2019-01-29T21:05:11.311Z,63.93
2019-01-29T21:10:17.846Z,63.75
2019-01-29T21:15:22.973Z,64.00
2019-01-29T21:20:29.101Z,64.01
2019-01-29T21:25:33.266Z,64.01
2019-01-29T21:30:39.729Z,64.65
2019-01-29T21:35:43.757Z,64.48
2019-01-29T21:40:47.904Z,64.65
2019-01-29T21:45:52.206Z,64.13
2019-01-29T21:50:56.280Z,64.13
2019-01-29T21:56:00.374Z,64.37
2019-01-29T22:01:04.615Z,64.58
2019-01-29T22:06:08.865Z,64.74
2019-01-29T22:11:13.018Z,64.65
2019-01-29T22:16:17.125Z,64.51
2019-01-29T22:21:21.261Z,64.63
2019-01-29T22:26:25.402Z,64.70
2019-01-29T22:31:29.429Z,64.73
2019-01-29T22:36:33.663Z,64.74
2019-01-29T22:41:37.784Z,64.82
2019-01-29T22:46:41.815Z,64.96
2019-01-29T22:51:45.922Z,64.81
2019-01-29T22:56:50.119Z,64.83
2019-01-29T23:01:54.293Z,64.96
2019-01-29T23:07:07.805Z,64.49
2019-01-29T23:12:12.107Z,65.05
2019-01-29T23:17:16.245Z,64.84
2019-01-29T23:22:20.457Z,65.18
2019-01-29T23:27:24.548Z,65.24
2019-01-29T23:32:28.547Z,65.24
2019-01-29T23:37:32.695Z,64.96
2019-01-29T23:42:36.785Z,65.29
2019-01-29T23:47:40.993Z,65.06
2019-01-29T23:52:45.063Z,64.90
2019-01-29T23:57:49.118Z,65.21
